Impacts TAF Board
For situational awareness. Not to be used for flight planning purposes.
IDs:

KMEM - Memphis Intl, TN, US

Issued at 1131 UTC 17 Dec 2018
Updated at 1214 UTC 17 Dec 2018
Potential Impact None Slight Moderate High
Time1154Z 17/13Z 17/14Z 17/15Z 17/16Z 17/17Z 17/18Z 17/19Z 17/20Z 17/21Z 17/22Z 17/23Z 18/00Z 18/01Z>>
Type OBS PRVL PRVL PRVL PRVL PRVL PRVL PRVL PRVL PRVL PRVL PRVL PRVL PRVL
VIS 2 0.25 0.25 2 >6 >6 >6 >6 >6 >6 >6 >6 >6 >6
CIG -- 2 2 7 -- -- -- -- -- -- -- -- 250 250
Cover FEW OVC OVC BKN SKC SKC SKC SKC SKC SKC SKC SKC BKN BKN
FltCat IFR LIFR LIFR IFR VFR VFR VFR VFR VFR VFR VFR VFR VFR VFR
WX BCFG BR FG FG BR -- -- -- -- -- -- -- -- -- --
WDir VRB VRB VRB VRB VRB VRB VRB VRB VRB VRB VRB VRB VRB VRB
WSpd 0 0 0 2 3 3 3 3 3 3 3 3 0 0
WGst -- -- -- -- -- -- -- -- -- -- -- -- -- --
Raw TAF
KMEM 171131Z 1712/1818 00000KT 2SM BR SCT002
  TEMPO 1712/1713 1/4SM FG OVC002
  FM171300 00000KT 1/4SM FG OVC002
  FM171500 VRB02KT 2SM BR BKN007
  FM171600 VRB03KT P6SM SKC
  FM180000 00000KT P6SM BKN250
  FM181500 12003KT P6SM SCT150 BKN250


Raw METAR
KMEM 171154Z 00000KT 2SM BCFG BR FEW002 02/02 A3024 RMK AO2 SLP239 T00220022 10050 20017 53007
KMEM 171116Z 20003KT 2SM BCFG BR FEW002 02/02 A3022 RMK AO2 SFC VIS 3 T00220022
KMEM 171054Z 19003KT 1SM R36L/5500VP6000FT BCFG BR FEW002 02/02 A3021 RMK AO2 TWR VIS 2 SLP232 T00170017
KMEM 171044Z 21004KT 1SM R36L/6000VP6000FT BCFG BR FEW002 02/02 A3021 RMK AO2 TWR VIS 2 T00220022
KMEM 171029Z 19004KT 2SM R36L/2000V3500FT BCFG BR FEW002 02/02 A3021 RMK AO2 T00220022
KMEM 171012Z 19004KT 2SM R36L/1600V2200FT BCFG BR FEW002 02/02 A3022 RMK AO2 T00220022
KMEM 170954Z COR 19004KT 2SM R36L/2600V5000FT BCFG BR FEW002 02/02 A3021 RMK AO2 SFC VIS 3 SLP231 T00220022
KMEM 170949Z 19005KT 2SM R36L/3000V5000FT BCFG BR FEW002 02/02 A3021 RMK AO2 SFC VIS 3
KMEM 170935Z 00000KT 2SM R36L/1200V2800FT BCFG BR CLR 03/03 A3021 RMK AO2 T00330033

METAR Board
Radar Display
Forecast Discussion
For situational awareness. Not to be used for flight planning purposes.